createdAt,value
2022-11-07T00:01:55.300Z,2.52
2022-11-07T00:04:21.942Z,2.44
2022-11-07T00:06:48.563Z,2.43
2022-11-07T00:09:15.331Z,2.42
2022-11-07T00:11:41.965Z,2.35
2022-11-07T00:14:08.584Z,2.35
2022-11-07T00:16:35.198Z,2.32
2022-11-07T00:19:01.818Z,2.52
2022-11-07T00:21:28.447Z,2.86
2022-11-07T00:23:55.067Z,2.53
2022-11-07T00:26:21.670Z,2.86
2022-11-07T00:28:48.298Z,2.85
2022-11-07T00:31:15.020Z,2.68
2022-11-07T00:33:41.995Z,2.66
2022-11-07T00:36:09.316Z,2.67
2022-11-07T00:38:35.964Z,2.71
2022-11-07T00:41:06.105Z,2.76
2022-11-07T00:43:32.766Z,2.48
2022-11-07T00:46:01.042Z,2.54
2022-11-07T00:48:27.671Z,2.79
2022-11-07T00:50:54.305Z,2.75
2022-11-07T00:53:20.973Z,2.50
2022-11-07T00:55:47.593Z,2.46
2022-11-07T00:58:14.685Z,2.79
2022-11-07T01:00:41.635Z,2.54
2022-11-07T01:03:08.297Z,2.91
2022-11-07T01:05:34.916Z,2.75
2022-11-07T01:08:01.538Z,2.78
2022-11-07T01:10:28.166Z,2.84
2022-11-07T01:12:54.774Z,3.04
2022-11-07T01:15:21.388Z,3.07
2022-11-07T01:17:48.038Z,3.03
2022-11-07T01:20:14.665Z,2.82
2022-11-07T01:22:41.283Z,3.13
2022-11-07T01:25:08.317Z,2.71
2022-11-07T01:27:34.946Z,3.01
2022-11-07T01:30:01.555Z,3.14
2022-11-07T01:32:28.170Z,3.00
2022-11-07T01:34:54.781Z,2.77
2022-11-07T01:37:21.411Z,2.73
2022-11-07T01:39:48.024Z,2.90
2022-11-07T01:42:14.642Z,2.78
2022-11-07T01:44:41.120Z,3.08
2022-11-07T01:47:07.751Z,2.73
2022-11-07T01:49:36.073Z,2.77
2022-11-07T01:52:06.683Z,2.78
2022-11-07T01:54:43.720Z,3.06
2022-11-07T01:57:14.125Z,2.60
2022-11-07T01:59:40.796Z,2.71
2022-11-07T02:02:07.502Z,2.82
2022-11-07T02:04:34.191Z,2.83
2022-11-07T02:07:21.334Z,2.51
2022-11-07T02:09:48.414Z,2.84
2022-11-07T02:12:15.093Z,2.67
2022-11-07T02:14:42.333Z,2.73
2022-11-07T02:17:09.870Z,2.99
2022-11-07T02:19:37.319Z,2.91
2022-11-07T02:22:14.374Z,2.70
2022-11-07T02:24:41.047Z,2.74
2022-11-07T02:27:10.440Z,2.90
2022-11-07T02:29:37.046Z,2.73
2022-11-07T02:32:05.058Z,2.56
2022-11-07T02:34:31.686Z,2.65
2022-11-07T02:36:58.293Z,2.72
2022-11-07T02:39:24.901Z,2.68
2022-11-07T02:41:51.696Z,2.83
2022-11-07T02:44:18.355Z,2.78
2022-11-07T02:46:44.961Z,2.71
2022-11-07T02:49:11.570Z,2.71
2022-11-07T02:51:38.178Z,2.70
2022-11-07T02:54:04.802Z,2.81
2022-11-07T02:56:31.425Z,2.91
2022-11-07T02:58:58.200Z,2.82
2022-11-07T03:01:24.964Z,2.79
2022-11-07T03:03:51.712Z,3.30
2022-11-07T03:06:19.875Z,3.95
2022-11-07T03:08:46.500Z,4.09
2022-11-07T03:11:13.432Z,4.74
2022-11-07T03:13:40.065Z,5.72
2022-11-07T03:16:07.735Z,6.44
2022-11-07T03:18:34.641Z,6.13
2022-11-07T03:21:01.295Z,5.75
2022-11-07T03:23:27.909Z,5.61
2022-11-07T03:25:54.514Z,6.24
2022-11-07T03:28:21.126Z,5.91
2022-11-07T03:30:47.748Z,6.09
2022-11-07T03:33:14.604Z,5.58
2022-11-07T03:35:41.434Z,5.37
2022-11-07T03:38:08.073Z,5.43
2022-11-07T03:40:34.708Z,5.40
2022-11-07T03:43:01.328Z,5.53
2022-11-07T03:45:27.947Z,5.57
2022-11-07T03:47:54.556Z,4.66
2022-11-07T03:50:21.311Z,4.60
2022-11-07T03:52:48.212Z,4.15
2022-11-07T03:55:15.074Z,4.01
2022-11-07T03:57:42.382Z,4.24
2022-11-07T04:00:09.487Z,4.05
2022-11-07T04:02:36.260Z,3.80
2022-11-07T04:05:02.967Z,3.84
2022-11-07T04:07:29.582Z,3.58
2022-11-07T04:09:56.186Z,3.87
2022-11-07T04:12:22.807Z,3.57
2022-11-07T04:14:49.421Z,3.53
2022-11-07T04:17:16.039Z,3.28
2022-11-07T04:19:42.663Z,3.18
2022-11-07T04:22:09.280Z,3.26
2022-11-07T04:24:35.913Z,3.19
2022-11-07T04:27:02.524Z,3.12
2022-11-07T04:29:29.151Z,3.08
2022-11-07T04:31:55.760Z,2.85
2022-11-07T04:34:22.376Z,2.72
2022-11-07T04:36:48.998Z,2.87
2022-11-07T04:39:15.613Z,2.85
2022-11-07T04:41:42.225Z,2.77
2022-11-07T04:44:08.834Z,2.74
2022-11-07T04:46:35.471Z,2.76
2022-11-07T04:49:02.090Z,3.12
2022-11-07T04:51:28.698Z,2.86
2022-11-07T04:53:55.319Z,3.05
2022-11-07T04:56:21.947Z,2.90
2022-11-07T04:58:48.558Z,2.96
2022-11-07T05:01:15.186Z,2.76
2022-11-07T05:03:42.357Z,2.81
2022-11-07T05:06:11.530Z,2.96
2022-11-07T05:08:38.150Z,3.07
2022-11-07T05:11:04.821Z,3.00
2022-11-07T05:13:31.427Z,3.09
2022-11-07T05:15:58.042Z,3.24
2022-11-07T05:18:24.658Z,3.18
2022-11-07T05:20:51.268Z,3.14
2022-11-07T05:23:18.371Z,3.04
2022-11-07T05:25:49.452Z,2.94
2022-11-07T05:28:19.890Z,2.86
2022-11-07T05:30:50.510Z,3.04
2022-11-07T05:33:18.275Z,3.17
2022-11-07T05:35:45.292Z,2.98
2022-11-07T05:38:11.996Z,3.48
2022-11-07T05:40:39.546Z,3.07
2022-11-07T05:43:07.786Z,3.13
2022-11-07T05:45:35.014Z,3.10
2022-11-07T05:48:02.646Z,3.02
2022-11-07T05:50:29.660Z,3.29
2022-11-07T05:52:56.407Z,3.21
2022-11-07T05:55:23.435Z,3.45
2022-11-07T05:57:50.222Z,3.36
2022-11-07T06:00:17.035Z,3.11
2022-11-07T06:02:43.889Z,3.11
2022-11-07T06:05:10.622Z,3.49
2022-11-07T06:07:38.150Z,3.49
2022-11-07T06:10:05.734Z,3.60
2022-11-07T06:12:32.364Z,3.70
2022-11-07T06:14:58.984Z,3.45
2022-11-07T06:17:25.592Z,3.19
2022-11-07T06:19:52.256Z,3.51
2022-11-07T06:22:18.859Z,3.32
2022-11-07T06:24:45.486Z,3.20
2022-11-07T06:27:12.120Z,3.51
2022-11-07T06:29:38.853Z,3.17
2022-11-07T06:32:05.548Z,3.31
2022-11-07T06:34:32.179Z,3.50
2022-11-07T06:37:02.779Z,3.59
2022-11-07T06:39:30.152Z,3.70
2022-11-07T06:41:56.767Z,3.53
2022-11-07T06:44:23.404Z,3.69
2022-11-07T06:46:50.026Z,3.79
2022-11-07T06:49:16.642Z,3.64
2022-11-07T06:51:47.787Z,3.60
2022-11-07T06:54:14.683Z,3.84
2022-11-07T06:56:41.356Z,3.55
2022-11-07T06:59:08.018Z,3.52
2022-11-07T07:01:34.800Z,3.24
2022-11-07T07:04:01.499Z,3.33
2022-11-07T07:06:28.117Z,3.36
2022-11-07T07:08:54.725Z,3.03
2022-11-07T07:11:21.339Z,3.06
2022-11-07T07:13:47.954Z,2.99
2022-11-07T07:16:14.561Z,3.03
2022-11-07T07:18:41.201Z,2.81
2022-11-07T07:21:09.291Z,3.09
2022-11-07T07:23:35.964Z,3.24
2022-11-07T07:26:02.905Z,3.27
2022-11-07T07:28:29.531Z,2.88
2022-11-07T07:31:15.731Z,3.19
2022-11-07T07:33:42.677Z,3.16
2022-11-07T07:36:09.575Z,3.17
2022-11-07T07:38:36.204Z,2.83
2022-11-07T07:41:02.919Z,3.11
2022-11-07T07:43:29.657Z,3.01
2022-11-07T07:46:00.209Z,2.99
2022-11-07T07:48:27.185Z,2.91
2022-11-07T07:50:53.840Z,2.83
2022-11-07T07:53:20.511Z,3.08
2022-11-07T07:55:47.158Z,3.09
2022-11-07T07:58:13.843Z,3.06
2022-11-07T08:00:40.571Z,3.41
2022-11-07T08:03:09.069Z,3.11
2022-11-07T08:05:35.782Z,3.14
2022-11-07T08:08:02.402Z,3.15
2022-11-07T08:10:41.999Z,3.06
2022-11-07T08:13:09.342Z,3.15
2022-11-07T08:15:35.972Z,2.65
2022-11-07T08:18:03.404Z,2.90
2022-11-07T08:20:30.032Z,2.97
2022-11-07T08:23:11.308Z,2.82
2022-11-07T08:25:42.619Z,2.73
2022-11-07T08:28:09.235Z,2.80
2022-11-07T08:30:35.837Z,2.86
2022-11-07T08:33:02.576Z,2.61
2022-11-07T08:35:30.260Z,2.94
2022-11-07T08:37:57.335Z,2.73
2022-11-07T08:40:23.956Z,2.81
2022-11-07T08:42:50.581Z,2.64
2022-11-07T08:45:17.214Z,2.73
2022-11-07T08:47:43.825Z,3.08
2022-11-07T08:50:10.446Z,2.87
2022-11-07T08:52:37.067Z,2.89
2022-11-07T08:55:04.111Z,3.05
2022-11-07T08:57:30.736Z,3.15
2022-11-07T08:59:57.349Z,2.90
2022-11-07T09:03:12.638Z,3.03
2022-11-07T09:05:10.575Z,3.02
2022-11-07T09:07:39.930Z,3.09
2022-11-07T09:10:07.028Z,2.98
2022-11-07T09:12:33.703Z,2.80
2022-11-07T09:15:00.331Z,2.89
2022-11-07T09:17:27.505Z,3.02
2022-11-07T09:19:54.127Z,3.16
2022-11-07T09:22:20.749Z,2.98
2022-11-07T09:24:47.372Z,2.95
2022-11-07T09:27:13.984Z,2.55
2022-11-07T09:29:40.607Z,2.88
2022-11-07T09:32:23.673Z,3.04
2022-11-07T09:34:58.048Z,3.08
2022-11-07T09:37:27.219Z,2.90
2022-11-07T09:39:53.857Z,2.77
2022-11-07T09:42:29.624Z,2.60
2022-11-07T09:44:59.915Z,2.88
2022-11-07T09:47:38.499Z,2.72
2022-11-07T09:50:18.061Z,2.71
2022-11-07T09:53:04.095Z,2.99
2022-11-07T09:55:38.101Z,3.25
2022-11-07T09:58:20.991Z,2.92
2022-11-07T10:00:47.664Z,2.92
2022-11-07T10:03:14.616Z,2.91
2022-11-07T10:05:55.963Z,2.68
2022-11-07T10:08:33.029Z,2.54
2022-11-07T10:11:28.681Z,2.40
2022-11-07T10:14:00.905Z,2.72
2022-11-07T10:16:46.230Z,2.51
2022-11-07T10:19:34.209Z,2.49
2022-11-07T10:22:00.729Z,2.47
2022-11-07T10:24:33.118Z,2.57
2022-11-07T10:26:59.739Z,2.71
2022-11-07T10:30:06.242Z,2.55
2022-11-07T10:32:54.189Z,2.51
2022-11-07T10:35:28.319Z,2.58
2022-11-07T10:37:56.099Z,2.60
2022-11-07T10:40:22.722Z,2.49
2022-11-07T10:42:49.335Z,2.52
2022-11-07T10:45:17.034Z,2.27
2022-11-07T10:47:43.839Z,2.16
2022-11-07T10:50:21.743Z,2.42
2022-11-07T10:53:03.794Z,2.22
2022-11-07T10:55:33.707Z,2.42
2022-11-07T10:58:05.794Z,2.43
2022-11-07T11:00:33.076Z,2.41
2022-11-07T11:02:59.722Z,2.39
2022-11-07T11:05:45.258Z,2.37
2022-11-07T11:08:19.051Z,2.44
2022-11-07T11:10:46.172Z,2.39
2022-11-07T11:13:27.528Z,2.41
2022-11-07T11:16:01.319Z,2.48
2022-11-07T11:18:34.143Z,2.37
2022-11-07T11:21:01.477Z,2.40
2022-11-07T11:23:29.774Z,2.19
2022-11-07T11:26:01.021Z,2.46
2022-11-07T11:28:41.774Z,2.40
2022-11-07T11:31:14.703Z,2.51
2022-11-07T11:34:01.434Z,2.56
2022-11-07T11:36:30.704Z,2.52
2022-11-07T11:38:57.340Z,2.19
2022-11-07T11:41:38.644Z,2.40
2022-11-07T11:44:13.161Z,2.26
2022-11-07T11:46:50.677Z,2.43
2022-11-07T11:49:36.655Z,2.47
2022-11-07T11:52:29.812Z,2.25
2022-11-07T11:54:56.499Z,2.35
2022-11-07T11:57:38.072Z,2.48
2022-11-07T12:00:05.878Z,2.43
2022-11-07T12:03:06.511Z,2.40
2022-11-07T12:06:07.358Z,2.30
2022-11-07T12:08:39.752Z,2.20
2022-11-07T12:11:27.519Z,2.25
2022-11-07T12:14:06.279Z,2.09
2022-11-07T12:17:09.280Z,2.46
2022-11-07T12:19:41.847Z,2.32
2022-11-07T12:22:20.341Z,2.46
2022-11-07T12:25:15.212Z,2.41
2022-11-07T12:27:44.178Z,2.26
2022-11-07T12:30:18.598Z,2.25
2022-11-07T12:33:02.803Z,1.95
2022-11-07T12:35:46.412Z,2.36
2022-11-07T12:38:18.835Z,2.32
2022-11-07T12:40:54.884Z,2.31
2022-11-07T12:43:30.456Z,2.21
2022-11-07T12:46:34.725Z,2.15
2022-11-07T12:49:38.809Z,2.00
2022-11-07T12:52:17.072Z,2.01
2022-11-07T12:54:49.211Z,2.24
2022-11-07T12:57:22.583Z,2.18
2022-11-07T13:00:27.600Z,2.05
2022-11-07T13:03:23.824Z,2.13
2022-11-07T13:05:55.972Z,2.17
2022-11-07T13:08:35.238Z,2.06
2022-11-07T13:11:03.817Z,2.05
2022-11-07T13:13:35.080Z,1.92
2022-11-07T13:16:18.880Z,2.06
2022-11-07T13:18:45.713Z,1.97
2022-11-07T13:21:12.368Z,2.09
2022-11-07T13:23:38.987Z,1.98
2022-11-07T13:26:25.931Z,1.67
2022-11-07T13:28:59.973Z,2.00
2022-11-07T13:31:39.399Z,1.89
2022-11-07T13:34:18.594Z,2.25
2022-11-07T13:36:45.948Z,1.84
2022-11-07T13:39:13.455Z,1.79
2022-11-07T13:41:40.153Z,1.88
2022-11-07T13:44:07.903Z,1.85
2022-11-07T13:46:42.758Z,1.86
2022-11-07T13:49:33.525Z,1.90
2022-11-07T13:52:04.518Z,1.77
2022-11-07T13:54:44.373Z,1.97
2022-11-07T13:57:15.830Z,1.79
2022-11-07T14:00:01.262Z,1.88
2022-11-07T14:02:33.289Z,2.10
2022-11-07T14:05:18.864Z,1.83
2022-11-07T14:07:51.181Z,1.72
2022-11-07T14:10:28.013Z,1.70
2022-11-07T14:13:08.686Z,1.69
2022-11-07T14:15:36.119Z,1.79
2022-11-07T14:18:03.168Z,1.83
2022-11-07T14:20:29.794Z,1.60
2022-11-07T14:23:00.233Z,1.81
2022-11-07T14:25:31.607Z,1.37
2022-11-07T14:27:58.370Z,1.60
2022-11-07T14:30:25.546Z,1.69
2022-11-07T14:32:53.976Z,1.49
2022-11-07T14:35:26.387Z,1.57
2022-11-07T14:37:53.042Z,1.68
2022-11-07T14:40:19.696Z,1.77
2022-11-07T14:42:46.321Z,1.80
2022-11-07T14:45:33.062Z,1.71
2022-11-07T14:48:04.477Z,1.74
2022-11-07T14:50:31.099Z,1.75
2022-11-07T14:53:06.284Z,1.87
2022-11-07T14:55:42.927Z,2.01
2022-11-07T14:58:10.188Z,1.88
2022-11-07T15:00:36.809Z,1.79
2022-11-07T15:03:03.452Z,1.93
2022-11-07T15:05:39.101Z,1.76
2022-11-07T15:08:05.732Z,1.93
2022-11-07T15:10:33.963Z,1.95
2022-11-07T15:13:01.871Z,1.83
2022-11-07T15:15:32.058Z,2.00
2022-11-07T15:18:00.714Z,2.03
2022-11-07T15:20:30.267Z,2.10
2022-11-07T15:22:57.481Z,1.84
2022-11-07T15:25:32.774Z,1.88
2022-11-07T15:27:59.416Z,2.15
2022-11-07T15:30:31.065Z,2.05
2022-11-07T15:32:57.696Z,2.11
2022-11-07T15:38:18.856Z,2.20
2022-11-07T15:40:45.826Z,1.97
2022-11-07T15:43:12.445Z,2.41
2022-11-07T15:45:39.301Z,2.09
2022-11-07T15:48:06.732Z,1.98
2022-11-07T15:50:33.358Z,1.92
2022-11-07T15:52:59.980Z,2.05
2022-11-07T15:55:26.611Z,2.19
2022-11-07T15:57:53.712Z,2.07
2022-11-07T16:00:24.327Z,2.23
2022-11-07T16:02:51.167Z,2.14
2022-11-07T16:05:18.098Z,2.36
2022-11-07T16:07:45.155Z,2.28
2022-11-07T16:10:21.753Z,2.35
2022-11-07T16:12:49.227Z,2.28
2022-11-07T16:15:16.442Z,2.39
2022-11-07T16:17:47.495Z,2.59
2022-11-07T16:20:19.350Z,2.65
2022-11-07T16:22:46.230Z,2.62
2022-11-07T16:25:21.438Z,2.65
2022-11-07T16:27:50.774Z,2.80
2022-11-07T16:30:17.557Z,2.55
2022-11-07T16:32:44.238Z,2.66
2022-11-07T16:35:10.853Z,2.59
2022-11-07T16:37:37.465Z,2.62
2022-11-07T16:40:05.260Z,2.69
2022-11-07T16:42:31.873Z,2.68
2022-11-07T16:44:58.575Z,2.46
2022-11-07T16:47:25.246Z,3.25
2022-11-07T16:49:55.930Z,3.85
2022-11-07T16:52:22.815Z,4.06
2022-11-07T16:54:49.434Z,4.38
2022-11-07T16:57:16.835Z,5.00
2022-11-07T16:59:43.768Z,4.59
2022-11-07T17:02:21.991Z,3.55
2022-11-07T17:04:49.714Z,3.22
2022-11-07T17:07:16.500Z,3.14
2022-11-07T17:09:43.143Z,3.07
2022-11-07T17:12:25.687Z,3.24
2022-11-07T17:14:52.312Z,3.40
2022-11-07T17:17:18.940Z,3.40
2022-11-07T17:19:45.556Z,3.34
2022-11-07T17:22:12.418Z,3.68
2022-11-07T17:24:39.254Z,3.90
2022-11-07T17:27:11.043Z,3.75
2022-11-07T17:29:37.666Z,3.69
2022-11-07T17:32:04.569Z,3.49
2022-11-07T17:34:31.234Z,3.64
2022-11-07T17:36:57.843Z,3.52
2022-11-07T17:39:24.457Z,3.24
2022-11-07T17:41:51.068Z,3.79
2022-11-07T17:44:17.746Z,4.12
2022-11-07T17:46:45.841Z,4.64
2022-11-07T17:49:13.849Z,4.97
2022-11-07T17:51:40.467Z,5.81
2022-11-07T17:54:07.078Z,5.59
2022-11-07T17:56:33.841Z,4.98
2022-11-07T17:59:04.822Z,5.23
2022-11-07T18:01:33.201Z,5.17
2022-11-07T18:04:00.078Z,4.91
2022-11-07T18:06:26.745Z,4.01
2022-11-07T18:08:54.867Z,3.73
2022-11-07T18:11:23.502Z,3.25
2022-11-07T18:13:50.335Z,3.47
2022-11-07T18:16:18.688Z,3.19
2022-11-07T18:18:46.553Z,3.13
2022-11-07T18:21:13.250Z,3.41
2022-11-07T18:23:40.504Z,3.36
2022-11-07T18:26:11.423Z,3.72
2022-11-07T18:28:38.872Z,4.11
2022-11-07T18:31:07.362Z,4.83
2022-11-07T18:33:34.130Z,5.30
2022-11-07T18:36:02.052Z,5.27
2022-11-07T18:38:28.663Z,5.06
2022-11-07T18:40:58.950Z,4.97
2022-11-07T18:43:25.567Z,4.67
2022-11-07T18:45:52.739Z,5.78
2022-11-07T18:48:19.412Z,7.68
2022-11-07T18:50:46.124Z,8.23
2022-11-07T18:53:12.744Z,9.18
2022-11-07T18:55:39.361Z,9.86
2022-11-07T18:58:05.966Z,9.81
2022-11-07T19:00:32.594Z,10.00
2022-11-07T19:02:59.207Z,9.70
2022-11-07T19:05:25.830Z,9.30
2022-11-07T19:07:52.456Z,8.51
2022-11-07T19:10:19.123Z,8.11
2022-11-07T19:12:45.775Z,7.49
2022-11-07T19:15:12.399Z,7.35
2022-11-07T19:17:39.014Z,6.06
2022-11-07T19:20:05.938Z,5.73
2022-11-07T19:22:32.554Z,6.66
2022-11-07T19:24:59.181Z,7.30
2022-11-07T19:27:25.799Z,7.02
2022-11-07T19:29:52.452Z,6.71
2022-11-07T19:32:19.465Z,6.78
2022-11-07T19:34:46.071Z,6.58
2022-11-07T19:37:12.696Z,6.30
2022-11-07T19:39:39.317Z,6.15
2022-11-07T19:42:05.954Z,5.55
2022-11-07T19:44:34.205Z,5.40
2022-11-07T19:47:00.819Z,5.39
2022-11-07T19:49:27.466Z,5.12
2022-11-07T19:51:54.077Z,5.00
2022-11-07T19:54:20.703Z,5.03
2022-11-07T19:56:47.401Z,4.81
2022-11-07T19:59:14.033Z,4.85
2022-11-07T20:01:40.719Z,4.64
2022-11-07T20:04:07.482Z,4.79
2022-11-07T20:06:35.488Z,5.57
2022-11-07T20:09:02.398Z,6.56
2022-11-07T20:11:29.141Z,6.07
2022-11-07T20:14:00.091Z,5.57
2022-11-07T20:16:26.938Z,5.05
2022-11-07T20:18:53.536Z,5.31
2022-11-07T20:21:21.426Z,5.21
2022-11-07T20:23:48.517Z,5.32
2022-11-07T20:26:19.026Z,5.81
2022-11-07T20:28:46.427Z,5.46
2022-11-07T20:31:21.270Z,5.37
2022-11-07T20:33:47.954Z,5.33
2022-11-07T20:36:15.344Z,5.24
2022-11-07T20:38:42.204Z,5.75
2022-11-07T20:41:08.937Z,5.67
2022-11-07T20:43:35.941Z,5.50
2022-11-07T20:46:04.758Z,5.25
2022-11-07T20:48:31.431Z,6.33
2022-11-07T20:50:58.048Z,6.04
2022-11-07T20:53:24.654Z,5.72
2022-11-07T20:55:51.276Z,6.17
2022-11-07T20:58:17.884Z,7.07
2022-11-07T21:00:44.554Z,7.02
2022-11-07T21:03:14.088Z,6.36
2022-11-07T21:05:40.931Z,5.56
2022-11-07T21:08:07.541Z,5.16
2022-11-07T21:10:34.170Z,5.46
2022-11-07T21:13:00.781Z,5.31
2022-11-07T21:15:27.410Z,6.28
2022-11-07T21:17:54.019Z,7.66
2022-11-07T21:20:20.633Z,7.21
2022-11-07T21:22:50.320Z,6.51
2022-11-07T21:25:16.955Z,5.89
2022-11-07T21:27:43.613Z,5.84
2022-11-07T21:30:10.316Z,5.70
2022-11-07T21:32:36.930Z,5.43
2022-11-07T21:35:03.577Z,5.09
2022-11-07T21:37:30.269Z,4.69
2022-11-07T21:39:56.890Z,4.45
2022-11-07T21:42:23.510Z,4.40
2022-11-07T21:44:50.124Z,4.47
2022-11-07T21:47:16.726Z,4.10
2022-11-07T21:49:43.351Z,4.43
2022-11-07T21:52:09.974Z,4.36
2022-11-07T21:54:36.584Z,4.06
2022-11-07T21:57:03.226Z,4.58
2022-11-07T21:59:30.089Z,4.47
2022-11-07T22:01:56.805Z,4.95
2022-11-07T22:04:23.563Z,5.41
2022-11-07T22:06:50.211Z,6.09
2022-11-07T22:09:17.460Z,6.14
2022-11-07T22:11:44.179Z,5.55
2022-11-07T22:14:18.442Z,4.80
2022-11-07T22:16:45.184Z,4.02
2022-11-07T22:19:12.897Z,4.03
2022-11-07T22:21:39.805Z,3.97
2022-11-07T22:24:06.741Z,3.92
2022-11-07T22:26:33.390Z,4.17
2022-11-07T22:29:00.008Z,4.12
2022-11-07T22:31:28.221Z,3.87
2022-11-07T22:33:54.863Z,4.28
2022-11-07T22:36:21.592Z,4.22
2022-11-07T22:38:48.212Z,4.22
2022-11-07T22:41:22.234Z,3.99
2022-11-07T22:43:49.018Z,4.06
2022-11-07T22:46:17.478Z,4.02
2022-11-07T22:48:44.390Z,4.22
2022-11-07T22:51:13.792Z,4.25
2022-11-07T22:53:40.543Z,4.60
2022-11-07T22:56:17.689Z,4.79
2022-11-07T22:58:45.126Z,6.40
2022-11-07T23:01:24.950Z,7.01
2022-11-07T23:03:51.709Z,5.26
2022-11-07T23:06:18.524Z,4.66
2022-11-07T23:08:45.209Z,4.31
2022-11-07T23:11:44.893Z,4.45
2022-11-07T23:14:05.814Z,4.60
2022-11-07T23:16:36.954Z,4.47
2022-11-07T23:19:05.554Z,4.82
2022-11-07T23:21:32.236Z,4.81
2022-11-07T23:23:59.512Z,4.24
2022-11-07T23:26:26.834Z,4.71
2022-11-07T23:28:53.455Z,4.95
2022-11-07T23:31:20.130Z,4.83
2022-11-07T23:33:46.765Z,4.69
2022-11-07T23:36:14.404Z,4.78
2022-11-07T23:38:41.519Z,5.11
2022-11-07T23:41:09.077Z,4.68
2022-11-07T23:43:35.699Z,4.45
2022-11-07T23:46:03.550Z,4.74
2022-11-07T23:48:30.207Z,4.72
2022-11-07T23:51:01.921Z,4.62
2022-11-07T23:53:31.341Z,4.99
2022-11-07T23:55:57.964Z,4.83
2022-11-07T23:58:24.602Z,4.71
